International Virtual Aviation Organisation

Eastern Europe and Northern Asia MCD

 
UHMA 121100Z 01013MPS 2400 1100S R01/1100D -SN BLSN FEW015 SCT024 BKN034 M15/M18 Q1010 R01/////// NOSIG RMK TDZ R01/01013G16MPS END R01/03002G04MPS QFE754/1005
QNH:(hPa/inHg/mmHg)1010 / 29.83 / 758
QFE:(hPa/inHg/mmHg)1003 / 29.61 / 752
Temperature-15
Dew Point-18
Visibility1100
WeatherLight Snow;Blowing Snow
Cloud CoverFEW (1500);
SCT (2400);
BKN (3400);
Transition Height1600 m./5500 ft.
Transition LevelFL80
SQUAWK